createdAt,value
2022-12-15T00:02:35.797Z,96258.25
2022-12-15T00:05:21.648Z,96233.47
2022-12-15T00:08:07.470Z,96271.09
2022-12-15T00:10:52.825Z,96259.97
2022-12-15T00:13:39.751Z,96256.53
2022-12-15T00:16:26.231Z,96155.63
2022-12-15T00:19:12.062Z,96293.25
2022-12-15T00:21:57.531Z,96290.69
2022-12-15T00:24:43.318Z,96219.72
2022-12-15T00:27:28.736Z,96263.28
2022-12-15T00:30:15.418Z,96252.16
2022-12-15T00:33:01.099Z,96305.25
2022-12-15T00:35:46.409Z,96298.41
2022-12-15T00:38:33.235Z,96284.72
2022-12-15T00:41:01.818Z,96310.38
2022-12-15T00:43:30.855Z,96312.13
2022-12-15T00:46:18.837Z,96290.72
2022-12-15T00:48:47.887Z,96201.75
2022-12-15T00:51:15.534Z,96324.91
2022-12-15T00:54:02.333Z,96317.22
2022-12-15T00:56:48.109Z,96291.56
2022-12-15T00:59:34.321Z,96337.75
2022-12-15T01:02:21.603Z,96335.19
2022-12-15T01:05:07.609Z,96332.63
2022-12-15T01:07:52.876Z,96337.75
2022-12-15T01:10:38.737Z,96353.13
2022-12-15T01:13:24.905Z,96336.00
2022-12-15T01:16:10.399Z,96352.28
2022-12-15T01:18:57.463Z,96353.97
2022-12-15T01:21:26.000Z,96363.41
2022-12-15T01:23:54.759Z,96365.13
2022-12-15T01:26:22.903Z,96359.16
2022-12-15T01:28:51.000Z,96368.56
2022-12-15T01:31:19.248Z,96312.06
2022-12-15T01:33:48.829Z,96380.50
2022-12-15T01:36:16.982Z,96382.22
2022-12-15T01:38:49.349Z,96381.34
2022-12-15T01:41:19.503Z,96377.09
2022-12-15T01:43:47.624Z,96375.41
2022-12-15T01:46:20.459Z,96390.78
2022-12-15T01:48:53.769Z,96388.25
2022-12-15T01:51:27.305Z,96373.66
2022-12-15T01:54:00.549Z,96390.78
2022-12-15T01:56:35.525Z,96380.50
2022-12-15T01:59:08.748Z,96361.66
2022-12-15T02:01:37.244Z,96404.44
2022-12-15T02:04:06.887Z,96217.94
2022-12-15T02:06:36.319Z,96401.03
2022-12-15T02:09:05.753Z,96407.91
2022-12-15T02:11:44.217Z,96402.75
2022-12-15T02:14:16.044Z,96399.34
2022-12-15T02:16:57.877Z,96391.66
2022-12-15T02:19:56.008Z,96389.09
2022-12-15T02:22:36.133Z,96395.09
2022-12-15T02:25:19.547Z,96409.63
2022-12-15T02:28:03.429Z,96418.13
2022-12-15T02:30:42.724Z,96388.16
2022-12-15T02:33:18.723Z,96419.88
2022-12-15T02:35:56.396Z,96419.88
2022-12-15T02:38:35.928Z,96462.63
2022-12-15T02:41:05.983Z,96412.97
2022-12-15T02:43:38.990Z,96453.22
2022-12-15T02:46:21.762Z,96454.94
2022-12-15T02:49:03.700Z,96456.63
2022-12-15T02:51:45.883Z,96452.38
2022-12-15T02:54:38.105Z,96445.53
2022-12-15T02:57:17.180Z,96460.94
2022-12-15T02:59:55.659Z,96440.34
2022-12-15T03:02:27.938Z,96449.78
2022-12-15T03:04:57.082Z,96484.88
2022-12-15T03:07:28.019Z,96434.31
2022-12-15T03:09:57.354Z,96466.00
2022-12-15T03:12:25.521Z,96467.72
2022-12-15T03:14:53.625Z,96463.44
2022-12-15T03:17:21.709Z,96473.72
2022-12-15T03:19:51.248Z,96467.72
2022-12-15T03:22:19.322Z,96481.41
2022-12-15T03:24:48.457Z,96489.06
2022-12-15T03:27:16.674Z,96498.44
2022-12-15T03:29:44.876Z,96498.47
2022-12-15T03:32:12.996Z,96495.91
2022-12-15T03:34:42.000Z,96403.38
2022-12-15T03:37:11.485Z,96488.25
2022-12-15T03:39:39.600Z,96488.25
2022-12-15T03:42:07.801Z,96476.25
2022-12-15T03:44:35.909Z,96492.53
2022-12-15T03:47:04.165Z,96493.38
2022-12-15T03:49:32.244Z,96510.47
2022-12-15T03:52:00.428Z,96491.59
2022-12-15T03:54:29.915Z,96450.41
2022-12-15T03:56:58.090Z,96454.78
2022-12-15T03:59:26.179Z,96488.22
2022-12-15T04:01:54.448Z,96488.31
2022-12-15T04:04:22.631Z,96479.75
2022-12-15T04:06:50.713Z,96476.28
2022-12-15T04:09:19.538Z,96472.88
2022-12-15T04:11:49.119Z,96448.88
2022-12-15T04:14:17.250Z,96471.19
2022-12-15T04:16:45.437Z,96465.22
2022-12-15T04:19:27.403Z,96454.94
2022-12-15T04:21:55.539Z,96465.97
2022-12-15T04:24:41.271Z,96455.72
2022-12-15T04:27:28.324Z,96454.00
2022-12-15T04:30:13.685Z,96447.16
2022-12-15T04:32:59.454Z,96452.28
2022-12-15T04:35:45.304Z,96465.97
2022-12-15T04:38:35.572Z,96471.09
2022-12-15T04:41:21.250Z,96485.66
2022-12-15T04:44:08.005Z,96469.38
2022-12-15T04:46:53.732Z,96489.06
2022-12-15T04:49:39.549Z,96483.94
2022-12-15T04:52:25.152Z,96431.69
2022-12-15T04:55:10.554Z,96480.53
2022-12-15T04:57:56.286Z,96480.50
2022-12-15T05:00:43.365Z,96467.66
2022-12-15T05:03:29.104Z,96455.72
2022-12-15T05:06:16.631Z,96485.69
2022-12-15T05:09:02.299Z,96387.97
2022-12-15T05:11:47.688Z,96489.88
2022-12-15T05:14:33.422Z,96479.53
2022-12-15T05:17:20.370Z,96490.69
2022-12-15T05:20:06.207Z,96463.22
2022-12-15T05:22:51.634Z,96490.63
2022-12-15T05:25:37.252Z,96503.44
2022-12-15T05:28:25.512Z,96500.88
2022-12-15T05:31:11.269Z,96488.91
2022-12-15T05:33:40.834Z,96502.56
2022-12-15T05:36:09.710Z,96523.97
2022-12-15T05:38:37.893Z,96520.50
2022-12-15T05:41:06.191Z,96520.50
2022-12-15T05:43:34.906Z,96518.78
2022-12-15T05:46:04.982Z,96520.53
2022-12-15T05:48:33.200Z,96518.88
2022-12-15T05:51:06.319Z,96533.28
2022-12-15T05:53:34.961Z,96537.41
2022-12-15T05:56:04.180Z,96508.34
2022-12-15T05:58:32.364Z,96527.19
2022-12-15T06:01:05.358Z,96522.91
2022-12-15T06:03:33.919Z,96532.34
2022-12-15T06:06:02.893Z,96533.25
2022-12-15T06:08:33.802Z,96552.84
2022-12-15T06:11:02.609Z,96548.56
2022-12-15T06:13:34.716Z,96551.09
2022-12-15T06:16:04.382Z,96367.63
2022-12-15T06:18:34.149Z,96545.88
2022-12-15T06:21:04.293Z,96557.94
2022-12-15T06:23:34.879Z,96551.78
2022-12-15T06:26:11.280Z,96549.28
2022-12-15T06:28:39.854Z,96544.91
2022-12-15T06:31:10.332Z,96598.06
2022-12-15T06:33:39.039Z,96596.34
2022-12-15T06:36:09.609Z,96598.06
2022-12-15T06:38:39.221Z,96554.31
2022-12-15T06:41:08.414Z,96602.38
2022-12-15T06:43:36.677Z,96598.84
2022-12-15T06:46:04.868Z,96611.63
2022-12-15T06:48:33.014Z,96615.88
2022-12-15T06:51:04.067Z,96624.41
2022-12-15T06:53:32.635Z,96638.94
2022-12-15T06:56:04.722Z,96645.81
2022-12-15T06:58:32.824Z,96642.47
2022-12-15T07:01:06.065Z,96626.19
2022-12-15T07:03:34.667Z,96608.13
2022-12-15T07:06:05.518Z,96661.28
2022-12-15T07:08:39.598Z,96620.97
2022-12-15T07:11:14.248Z,96628.69
2022-12-15T07:13:42.559Z,96677.69
2022-12-15T07:16:12.890Z,96688.91
2022-12-15T07:18:41.288Z,96694.09
2022-12-15T07:21:11.008Z,96686.53
2022-12-15T07:23:53.940Z,96691.72
2022-12-15T07:26:24.740Z,96665.94
2022-12-15T07:28:53.965Z,96693.41
2022-12-15T07:31:23.106Z,96503.00
2022-12-15T07:33:52.755Z,96700.34
2022-12-15T07:36:21.162Z,96693.59
2022-12-15T07:38:50.529Z,96706.53
2022-12-15T07:41:20.631Z,96704.84
2022-12-15T07:43:50.292Z,96685.13
2022-12-15T07:46:19.448Z,96638.88
2022-12-15T07:48:50.529Z,96668.94
2022-12-15T07:51:21.225Z,96491.47
2022-12-15T07:53:51.281Z,96713.63
2022-12-15T07:56:20.868Z,96698.16
2022-12-15T07:58:50.452Z,96730.75
2022-12-15T08:01:18.840Z,96739.31
2022-12-15T08:03:48.183Z,96743.63
2022-12-15T08:06:16.980Z,96735.94
2022-12-15T08:08:50.732Z,96661.34
2022-12-15T08:11:22.069Z,96726.59
2022-12-15T08:14:02.463Z,96740.31
2022-12-15T08:16:31.895Z,96682.03
2022-12-15T08:19:00.251Z,96728.38
2022-12-15T08:21:28.453Z,96724.94
2022-12-15T08:23:56.566Z,96727.53
2022-12-15T08:26:30.011Z,96730.94
2022-12-15T08:29:31.969Z,96746.41
2022-12-15T08:31:52.439Z,96724.94
2022-12-15T08:34:20.842Z,96761.00
2022-12-15T08:36:49.033Z,96771.28
2022-12-15T08:39:17.585Z,96777.28
2022-12-15T08:41:46.198Z,96780.72
2022-12-15T08:44:17.093Z,96775.56
2022-12-15T08:46:45.332Z,96754.97
2022-12-15T08:49:18.046Z,96768.72
2022-12-15T08:51:50.238Z,96763.56
2022-12-15T08:54:19.500Z,96734.34
2022-12-15T08:56:47.765Z,96757.50
2022-12-15T08:59:17.331Z,96766.06
2022-12-15T09:01:45.528Z,96686.25
2022-12-15T09:04:13.803Z,96742.75
2022-12-15T09:06:42.005Z,96735.00
2022-12-15T09:09:13.919Z,96739.28
2022-12-15T09:11:42.078Z,96750.47
2022-12-15T09:14:10.246Z,96737.59
2022-12-15T09:16:39.948Z,96737.53
2022-12-15T09:19:08.551Z,96771.84
2022-12-15T09:21:37.095Z,96760.75
2022-12-15T09:24:06.350Z,96789.91
2022-12-15T09:26:35.726Z,96785.59
2022-12-15T09:29:04.230Z,96773.56
2022-12-15T09:31:34.012Z,96798.44
2022-12-15T09:34:03.947Z,96633.81
2022-12-15T09:36:33.436Z,96793.13
2022-12-15T09:39:03.124Z,96801.69
2022-12-15T09:41:33.225Z,96799.09
2022-12-15T09:44:04.370Z,96805.16
2022-12-15T09:46:49.826Z,96799.94
2022-12-15T09:49:32.037Z,96793.00
2022-12-15T09:52:10.701Z,96773.19
2022-12-15T09:54:41.962Z,96790.28
2022-12-15T09:57:18.763Z,96782.44
2022-12-15T10:00:05.208Z,96785.84
2022-12-15T10:03:02.285Z,96736.09
2022-12-15T10:06:07.110Z,96771.97
2022-12-15T10:08:35.235Z,96778.78
2022-12-15T10:11:06.243Z,96779.56
2022-12-15T10:13:42.076Z,96783.84
2022-12-15T10:16:21.751Z,96769.31
2022-12-15T10:19:01.714Z,96778.69
2022-12-15T10:21:33.231Z,96789.03
2022-12-15T10:24:17.622Z,96786.47
2022-12-15T10:26:58.283Z,96797.78
2022-12-15T10:29:37.748Z,96776.44
2022-12-15T10:32:11.956Z,96804.91
2022-12-15T10:34:43.258Z,96803.28
2022-12-15T10:37:17.644Z,96787.91
2022-12-15T10:39:47.522Z,96811.03
2022-12-15T10:42:21.945Z,96801.56
2022-12-15T10:44:51.865Z,96770.69
2022-12-15T10:47:26.021Z,96672.94
2022-12-15T10:49:55.293Z,96816.72
2022-12-15T10:52:35.902Z,96811.28
2022-12-15T10:55:24.136Z,96818.72
2022-12-15T10:58:00.886Z,96814.28
2022-12-15T11:00:31.405Z,96809.78
2022-12-15T11:03:00.193Z,96748.69
2022-12-15T11:05:28.683Z,96786.09
2022-12-15T11:08:16.604Z,96781.56
2022-12-15T11:11:09.636Z,96775.38
2022-12-15T11:13:38.344Z,96760.50
2022-12-15T11:16:17.107Z,96768.91
2022-12-15T11:18:49.956Z,96781.78
2022-12-15T11:21:23.720Z,96780.22
2022-12-15T11:24:09.955Z,96782.16
2022-12-15T11:26:49.592Z,96782.94
2022-12-15T11:29:26.267Z,96781.63
2022-12-15T11:31:57.945Z,96768.50
2022-12-15T11:34:37.890Z,96761.16
2022-12-15T11:37:36.490Z,96758.13
2022-12-15T11:40:20.241Z,96735.25
2022-12-15T11:43:01.017Z,96722.16
2022-12-15T11:45:43.301Z,96718.66
2022-12-15T11:48:17.337Z,96721.97
2022-12-15T11:50:54.785Z,96718.34
2022-12-15T11:53:52.210Z,96727.00
2022-12-15T11:56:30.335Z,96726.16
2022-12-15T11:59:39.675Z,96721.53
2022-12-15T12:02:27.848Z,96728.69
2022-12-15T12:05:11.065Z,96725.53
2022-12-15T12:07:45.798Z,96734.53
2022-12-15T12:10:28.957Z,96740.91
2022-12-15T12:13:06.697Z,96704.25
2022-12-15T12:15:49.240Z,96743.72
2022-12-15T12:18:23.016Z,96742.03
2022-12-15T12:20:57.944Z,96733.94
2022-12-15T12:23:32.950Z,96732.75
2022-12-15T12:26:08.495Z,96731.63
2022-12-15T12:28:48.895Z,96741.50
2022-12-15T12:31:39.750Z,96710.34
2022-12-15T12:34:15.236Z,96741.94
2022-12-15T12:36:45.175Z,96734.91
2022-12-15T12:39:21.545Z,96675.25
2022-12-15T12:41:57.021Z,96743.72
2022-12-15T12:44:32.256Z,96724.66
2022-12-15T12:47:07.936Z,96719.56
2022-12-15T12:49:42.214Z,96714.25
2022-12-15T12:52:21.984Z,96712.16
2022-12-15T12:55:00.029Z,96689.03
2022-12-15T12:57:39.703Z,96695.94
2022-12-15T13:00:25.059Z,96691.56
2022-12-15T13:03:16.461Z,96662.28
2022-12-15T13:05:47.160Z,96705.63
2022-12-15T13:08:51.379Z,96691.56
2022-12-15T13:11:57.300Z,96685.50
2022-12-15T13:14:38.625Z,96703.59
2022-12-15T13:17:31.268Z,96690.88
2022-12-15T13:20:17.031Z,96713.84
2022-12-15T13:22:45.854Z,96733.41
2022-12-15T13:25:42.430Z,96752.50
2022-12-15T13:28:27.849Z,96763.91
2022-12-15T13:31:33.954Z,96774.53
2022-12-15T13:34:16.175Z,96709.28
2022-12-15T13:36:54.743Z,96696.81
2022-12-15T13:39:56.371Z,96774.34
2022-12-15T13:42:35.883Z,96637.59
2022-12-15T13:45:40.578Z,96728.31
2022-12-15T13:48:31.193Z,96710.41
2022-12-15T13:51:19.495Z,96736.22
2022-12-15T13:53:51.698Z,96726.13
2022-12-15T13:56:53.631Z,96738.97
2022-12-15T13:59:31.918Z,96735.53
2022-12-15T14:02:00.728Z,96739.00
2022-12-15T14:04:29.061Z,96742.50
2022-12-15T14:07:02.977Z,96748.56
2022-12-15T14:09:34.098Z,96704.91
2022-12-15T14:12:03.509Z,96747.84
2022-12-15T14:14:36.235Z,96757.41
2022-12-15T14:17:08.728Z,96766.84
2022-12-15T14:19:41.620Z,96765.13
2022-12-15T14:25:19.402Z,96762.66
2022-12-15T14:27:50.740Z,96776.47
2022-12-15T14:30:24.931Z,96751.66
2022-12-15T14:32:57.707Z,96759.47
2022-12-15T14:35:31.765Z,96772.34
2022-12-15T14:38:04.522Z,96724.41
2022-12-15T14:40:35.903Z,96774.19
2022-12-15T14:43:05.595Z,96684.22
2022-12-15T14:45:34.078Z,96733.88
2022-12-15T14:48:40.117Z,96708.16
2022-12-15T14:50:56.041Z,96740.72
2022-12-15T14:53:34.967Z,96748.44
2022-12-15T14:56:31.630Z,96737.28
2022-12-15T14:59:04.044Z,96748.47
2022-12-15T15:01:40.396Z,96740.69
2022-12-15T15:04:24.594Z,96743.28
2022-12-15T15:06:56.458Z,96715.84
2022-12-15T15:09:28.502Z,96732.13
2022-12-15T15:12:01.293Z,96658.44
2022-12-15T15:14:33.612Z,96732.13
2022-12-15T15:17:07.385Z,96745.03
2022-12-15T15:19:40.890Z,96745.06
2022-12-15T15:22:43.219Z,96711.69
2022-12-15T15:25:40.268Z,96757.97
2022-12-15T15:28:17.218Z,96753.72
2022-12-15T15:30:48.538Z,96751.16
2022-12-15T15:33:17.616Z,96753.75
2022-12-15T15:35:50.234Z,96752.88
2022-12-15T15:38:23.196Z,96780.41
2022-12-15T15:40:57.733Z,96753.78
2022-12-15T15:43:27.397Z,96745.19
2022-12-15T15:46:01.889Z,96747.78
2022-12-15T15:48:33.309Z,96745.25
2022-12-15T15:51:02.245Z,96728.97
2022-12-15T15:53:33.144Z,96759.00
2022-12-15T15:56:06.659Z,96734.13
2022-12-15T15:58:35.319Z,96697.28
2022-12-15T16:01:09.580Z,96630.44
2022-12-15T16:03:42.982Z,96604.75
2022-12-15T16:06:16.657Z,96757.25
2022-12-15T16:08:46.107Z,96719.56
2022-12-15T16:11:17.471Z,96753.03
2022-12-15T16:13:46.001Z,96747.06
2022-12-15T16:16:19.311Z,96753.09
2022-12-15T16:18:48.386Z,96688.78
2022-12-15T16:21:17.986Z,96756.53
2022-12-15T16:23:48.440Z,96757.38
2022-12-15T16:26:26.953Z,96741.13
2022-12-15T16:28:55.559Z,96752.22
2022-12-15T16:31:35.472Z,96721.34
2022-12-15T16:34:07.317Z,96615.97
2022-12-15T16:36:35.592Z,96753.94
2022-12-15T16:39:03.759Z,96765.94
2022-12-15T16:41:34.229Z,96739.25
2022-12-15T16:44:02.442Z,96748.75
2022-12-15T16:46:30.638Z,96740.22
2022-12-15T16:48:58.814Z,96681.94
2022-12-15T16:51:35.281Z,96745.38
2022-12-15T16:54:03.684Z,96663.06
2022-12-15T16:56:33.689Z,96789.06
2022-12-15T16:59:31.574Z,96784.78
2022-12-15T17:01:50.288Z,96786.53
2022-12-15T17:04:19.343Z,96783.97
2022-12-15T17:06:47.595Z,96790.88
2022-12-15T17:09:22.163Z,96784.00
2022-12-15T17:11:52.576Z,96780.56
2022-12-15T17:14:20.965Z,96747.97
2022-12-15T17:16:49.160Z,96783.09
2022-12-15T17:19:21.048Z,96757.31
2022-12-15T17:21:51.998Z,96744.50
2022-12-15T17:24:22.466Z,96780.47
2022-12-15T17:26:52.421Z,96783.91
2022-12-15T17:29:22.471Z,96705.88
2022-12-15T17:31:51.286Z,96780.50
2022-12-15T17:34:27.627Z,96675.91
2022-12-15T17:36:56.480Z,96772.72
2022-12-15T17:39:24.854Z,96779.56
2022-12-15T17:42:02.816Z,96774.41
2022-12-15T17:44:36.325Z,96737.50
2022-12-15T17:47:07.933Z,96752.09
2022-12-15T17:49:48.786Z,96724.72
2022-12-15T17:52:27.033Z,96774.47
2022-12-15T17:54:56.681Z,96769.28
2022-12-15T17:57:26.372Z,96773.56
2022-12-15T17:59:55.039Z,96764.97
2022-12-15T18:02:23.363Z,96779.59
2022-12-15T18:04:51.744Z,96792.41
2022-12-15T18:07:22.039Z,96787.28
2022-12-15T18:09:51.340Z,96790.72
2022-12-15T18:12:21.847Z,96755.63
2022-12-15T18:14:52.133Z,96772.72
2022-12-15T18:17:20.499Z,96702.41
2022-12-15T18:19:49.113Z,96649.22
2022-12-15T18:22:22.582Z,96767.53
2022-12-15T18:24:52.296Z,96759.84
2022-12-15T18:27:23.658Z,96733.25
2022-12-15T18:29:53.737Z,96765.03
2022-12-15T18:32:23.637Z,96776.16
2022-12-15T18:34:52.466Z,96758.91
2022-12-15T18:37:23.051Z,96747.78
2022-12-15T18:39:51.814Z,96442.94
2022-12-15T18:42:21.927Z,96742.63
2022-12-15T18:44:53.588Z,96748.63
2022-12-15T18:47:23.879Z,96742.63
2022-12-15T18:49:52.440Z,96740.03
2022-12-15T18:52:23.146Z,96740.03
2022-12-15T18:54:54.241Z,96725.44
2022-12-15T18:57:28.217Z,96734.88
2022-12-15T19:00:00.367Z,96698.84
2022-12-15T19:02:28.918Z,96726.19
2022-12-15T19:04:57.296Z,96701.34
2022-12-15T19:07:25.591Z,96721.09
2022-12-15T19:09:54.248Z,96717.66
2022-12-15T19:12:22.592Z,96554.13
2022-12-15T19:14:53.084Z,96711.66
2022-12-15T19:17:42.814Z,96710.81
2022-12-15T19:20:35.549Z,96715.13
2022-12-15T19:23:04.052Z,96716.03
2022-12-15T19:25:33.024Z,96644.88
2022-12-15T19:28:01.970Z,96664.56
2022-12-15T19:30:37.077Z,96687.75
2022-12-15T19:33:11.363Z,96688.59
2022-12-15T19:35:41.318Z,96690.22
2022-12-15T19:38:12.854Z,96584.84
2022-12-15T19:40:41.225Z,96687.69
2022-12-15T19:43:14.330Z,96692.91
2022-12-15T19:45:42.548Z,96681.75
2022-12-15T19:48:13.336Z,96681.75
2022-12-15T19:50:43.181Z,96557.56
2022-12-15T19:53:18.703Z,96665.44
2022-12-15T19:55:46.839Z,96648.28
2022-12-15T19:58:27.810Z,96661.97
2022-12-15T20:00:58.171Z,96605.38
2022-12-15T20:03:28.746Z,96640.50
2022-12-15T20:05:58.628Z,96661.03
2022-12-15T20:08:29.192Z,96654.22
2022-12-15T20:10:58.096Z,96640.50
2022-12-15T20:13:27.259Z,96643.00
2022-12-15T20:15:55.761Z,96618.09
2022-12-15T20:18:24.135Z,96639.56
2022-12-15T20:20:53.812Z,96640.41
2022-12-15T20:23:27.057Z,96644.66
2022-12-15T20:25:56.042Z,96642.09
2022-12-15T20:28:26.876Z,96648.97
2022-12-15T20:30:56.587Z,96644.72
2022-12-15T20:33:24.847Z,96637.84
2022-12-15T20:35:55.235Z,96637.94
2022-12-15T20:38:30.138Z,96629.38
2022-12-15T20:40:59.632Z,96626.81
2022-12-15T20:43:31.392Z,96602.78
2022-12-15T20:46:04.208Z,96630.16
2022-12-15T20:48:34.816Z,96581.34
2022-12-15T20:51:09.229Z,96612.97
2022-12-15T20:53:39.143Z,96618.94
2022-12-15T20:56:07.786Z,96624.13
2022-12-15T20:58:41.754Z,96616.38
2022-12-15T21:01:19.723Z,96610.38
2022-12-15T21:03:48.827Z,96615.53
2022-12-15T21:06:18.950Z,96552.19
2022-12-15T21:08:47.158Z,96613.84
2022-12-15T21:11:18.645Z,96609.63
2022-12-15T21:13:48.701Z,96601.88
2022-12-15T21:16:19.876Z,96605.28
2022-12-15T21:21:40.849Z,96600.97
2022-12-15T21:24:16.685Z,96552.13
2022-12-15T21:26:44.996Z,96588.97
2022-12-15T21:29:14.957Z,96579.53
2022-12-15T21:31:43.500Z,96596.69
2022-12-15T21:34:12.956Z,96586.41
2022-12-15T21:36:45.115Z,96542.78
2022-12-15T21:39:16.816Z,96603.56
2022-12-15T21:41:45.459Z,96595.81
2022-12-15T21:44:14.911Z,96578.78
2022-12-15T21:46:43.584Z,96588.19
2022-12-15T21:49:18.563Z,96610.44
2022-12-15T21:51:51.863Z,96619.00
2022-12-15T21:57:12.629Z,96595.00
2022-12-15T21:59:40.945Z,96595.84
2022-12-15T22:02:26.147Z,96586.47
2022-12-15T22:04:55.087Z,96563.31
2022-12-15T22:07:24.786Z,96597.50
2022-12-15T22:09:52.961Z,96582.94
2022-12-15T22:12:24.305Z,96505.09
2022-12-15T22:14:52.889Z,96560.66
2022-12-15T22:17:23.085Z,96528.16
2022-12-15T22:19:51.274Z,96583.72
2022-12-15T22:22:20.688Z,96581.13
2022-12-15T22:24:50.257Z,96565.69
2022-12-15T22:27:21.009Z,96557.13
2022-12-15T22:29:50.411Z,96550.22
2022-12-15T22:32:19.136Z,96529.59
2022-12-15T22:34:47.339Z,96518.41
2022-12-15T22:37:15.865Z,96515.84
2022-12-15T22:39:43.961Z,96115.19
2022-12-15T22:42:17.987Z,96512.44
2022-12-15T22:44:46.738Z,96486.75
2022-12-15T22:47:15.068Z,96485.06
2022-12-15T22:49:43.712Z,96500.34
2022-12-15T22:52:17.363Z,96417.41
2022-12-15T22:54:46.300Z,96477.16
2022-12-15T22:57:21.931Z,96459.16
2022-12-15T23:00:00.612Z,96443.69
2022-12-15T23:02:30.118Z,96445.41
2022-12-15T23:04:58.273Z,96403.50
2022-12-15T23:07:26.750Z,96431.63
2022-12-15T23:10:15.396Z,96427.31
2022-12-15T23:12:44.061Z,96388.00
2022-12-15T23:15:30.140Z,96400.75
2022-12-15T23:17:58.312Z,96422.09
2022-12-15T23:20:26.960Z,96400.75
2022-12-15T23:22:55.253Z,96423.03
2022-12-15T23:25:23.420Z,96424.69
2022-12-15T23:27:53.071Z,96433.19
2022-12-15T23:30:21.169Z,96440.06
2022-12-15T23:32:49.275Z,96445.25
2022-12-15T23:35:17.572Z,96423.13
2022-12-15T23:37:46.043Z,96429.16
2022-12-15T23:40:19.989Z,96433.50
2022-12-15T23:42:48.429Z,96418.09
2022-12-15T23:45:18.369Z,96408.69
2022-12-15T23:47:46.686Z,95570.03
2022-12-15T23:50:15.206Z,96414.66
2022-12-15T23:52:43.363Z,96419.81
2022-12-15T23:55:11.592Z,96424.09
2022-12-15T23:57:40.223Z,96423.16
